createdAt,value
2023-04-05T05:39:19.308Z,0.04
2023-04-05T05:46:43.746Z,0.17
2023-04-05T05:49:47.848Z,0.30
2023-04-05T05:52:50.599Z,0.42
2023-04-05T05:55:53.039Z,0.63
2023-04-05T05:58:55.885Z,0.68
2023-04-05T06:01:59.685Z,0.73
2023-04-05T06:05:03.020Z,0.80
2023-04-05T06:08:05.982Z,0.84
2023-04-05T06:11:08.462Z,0.95
2023-04-05T06:14:11.136Z,1.08
2023-04-05T06:17:14.933Z,1.20
2023-04-05T06:20:17.507Z,1.27
2023-04-05T06:23:19.956Z,1.32
2023-04-05T06:26:27.118Z,1.42
2023-04-05T06:29:29.601Z,1.59
2023-04-05T06:32:33.448Z,1.73
2023-04-05T06:35:36.022Z,1.81
2023-04-05T06:38:38.652Z,1.90
2023-04-05T06:41:41.361Z,1.93
2023-04-05T06:44:43.807Z,1.96
2023-04-05T06:47:47.662Z,2.03
2023-04-05T06:50:57.994Z,2.16
2023-04-05T06:54:00.563Z,2.10
2023-04-05T06:57:03.040Z,2.23
2023-04-05T07:00:10.711Z,2.30
2023-04-05T07:03:14.563Z,2.17
2023-04-05T07:06:17.074Z,2.02
2023-04-05T07:09:20.611Z,1.87
2023-04-05T07:12:23.062Z,1.99
2023-04-05T07:15:25.961Z,2.08
2023-04-05T07:18:30.786Z,1.98
2023-04-05T07:21:33.314Z,1.93
2023-04-05T07:24:35.978Z,1.88
2023-04-05T07:27:39.750Z,1.94
2023-04-05T07:30:42.602Z,2.17
2023-04-05T07:33:46.528Z,2.30
2023-04-05T07:36:50.382Z,2.26
2023-04-05T07:39:52.853Z,2.41
2023-04-05T07:42:55.832Z,2.30
2023-04-05T07:46:02.790Z,2.39
2023-04-05T07:49:06.678Z,2.54
2023-04-05T07:52:09.157Z,2.60
2023-04-05T07:55:12.189Z,2.50
2023-04-05T07:58:15.927Z,2.67
2023-04-05T08:01:18.664Z,2.99
2023-04-05T08:04:22.606Z,3.10
2023-04-05T08:07:25.278Z,3.01
2023-04-05T08:10:28.054Z,2.95
2023-04-05T08:13:30.643Z,3.36
2023-04-05T08:16:33.741Z,3.64
2023-04-05T08:19:37.597Z,3.77
2023-04-05T08:22:40.089Z,3.95
2023-04-05T08:25:42.802Z,3.89
2023-04-05T08:28:45.517Z,3.69
2023-04-05T08:31:48.028Z,3.94
2023-04-05T08:34:51.899Z,3.86
2023-04-05T08:37:54.393Z,3.55
2023-04-05T08:40:56.912Z,3.59
2023-04-05T08:44:02.879Z,3.67
2023-04-05T08:47:05.887Z,3.49
2023-04-05T08:50:13.535Z,3.50
2023-04-05T08:53:16.048Z,3.40
2023-04-05T08:56:22.808Z,3.39
2023-04-05T08:59:25.720Z,3.35
2023-04-05T09:02:29.224Z,3.41
2023-04-05T09:05:33.430Z,3.45
2023-04-05T09:08:35.924Z,3.63
2023-04-05T09:11:38.900Z,3.54
2023-04-05T09:14:42.955Z,3.68
2023-04-05T09:17:45.672Z,3.85
2023-04-05T09:20:49.579Z,4.15
2023-04-05T09:23:53.897Z,4.06
2023-04-05T09:27:05.612Z,4.00
2023-04-05T09:30:22.275Z,4.03
2023-04-05T09:33:25.756Z,4.08
2023-04-05T09:36:29.614Z,4.03
2023-04-05T09:39:33.673Z,3.84
2023-04-05T09:42:45.899Z,3.83
2023-04-05T09:45:48.409Z,4.07
2023-04-05T09:48:51.411Z,4.67
2023-04-05T09:51:55.400Z,4.74
2023-04-05T09:54:59.789Z,5.23
2023-04-05T09:58:03.211Z,5.57
2023-04-05T10:04:09.053Z,5.98
2023-04-05T10:07:14.432Z,5.91
2023-04-05T10:10:16.917Z,6.25
2023-04-05T10:13:20.486Z,6.12
2023-04-05T10:16:27.450Z,5.87
2023-04-05T10:19:35.265Z,5.42
2023-04-05T10:22:45.297Z,5.22
2023-04-05T10:25:54.521Z,4.73
2023-04-05T10:29:02.760Z,4.49
2023-04-05T10:32:14.808Z,4.52
2023-04-05T10:35:19.061Z,4.43
2023-04-05T10:38:26.010Z,4.44
2023-04-05T10:41:31.411Z,4.65
2023-04-05T10:44:37.070Z,4.96
2023-04-05T10:47:44.263Z,5.17
2023-04-05T10:50:48.753Z,5.00
2023-04-05T10:53:52.955Z,5.38
2023-04-05T10:56:56.592Z,6.04
2023-04-05T11:00:01.071Z,6.18
2023-04-05T11:03:03.610Z,6.21
2023-04-05T11:06:19.918Z,5.90
2023-04-05T11:09:25.987Z,6.01
2023-04-05T11:13:09.009Z,5.89
2023-04-05T11:16:11.764Z,5.71
2023-04-05T11:19:14.264Z,5.86
2023-04-05T11:22:27.158Z,5.91
2023-04-05T11:25:31.328Z,6.14
2023-04-05T11:28:37.727Z,6.19
2023-04-05T11:31:59.404Z,6.03
2023-04-05T11:35:06.631Z,5.77
2023-04-05T11:38:09.464Z,6.11
2023-04-05T11:41:17.630Z,6.30
2023-04-05T11:44:20.656Z,6.26
2023-04-05T11:47:23.230Z,6.16
2023-04-05T11:50:26.314Z,6.32
2023-04-05T11:53:28.795Z,6.49
2023-04-05T11:56:32.609Z,7.09
2023-04-05T11:59:36.656Z,8.42
2023-04-05T12:02:44.785Z,8.51
2023-04-05T12:05:51.462Z,8.83
2023-04-05T12:08:55.951Z,8.98
2023-04-05T12:11:59.784Z,9.32
2023-04-05T12:15:03.239Z,9.86
2023-04-05T12:18:07.859Z,9.90
2023-04-05T12:21:11.241Z,9.97
2023-04-05T12:24:13.907Z,9.12
2023-04-05T12:27:18.073Z,8.49
2023-04-05T12:30:22.150Z,7.64
2023-04-05T12:33:28.471Z,6.91
2023-04-05T12:36:32.555Z,6.72
2023-04-05T12:39:35.052Z,6.63
2023-04-05T12:42:40.451Z,6.54
2023-04-05T12:45:44.460Z,6.92
2023-04-05T12:48:51.561Z,6.98
2023-04-05T12:51:54.025Z,6.81
2023-04-05T12:54:56.809Z,6.97
2023-04-05T12:58:03.770Z,7.60
2023-04-05T13:01:06.565Z,8.16
2023-04-05T13:04:15.927Z,7.02
2023-04-05T13:07:19.282Z,6.57
2023-04-05T13:10:22.888Z,7.05
2023-04-05T13:13:26.658Z,7.77
2023-04-05T13:16:29.148Z,8.61
2023-04-05T13:19:31.669Z,9.37
2023-04-05T13:22:34.360Z,8.48
2023-04-05T13:25:36.823Z,7.58
2023-04-05T13:28:40.605Z,6.86
2023-04-05T13:31:43.192Z,7.60
2023-04-05T13:34:45.772Z,8.05
2023-04-05T13:37:49.627Z,7.48
2023-04-05T13:40:52.121Z,7.78
2023-04-05T13:43:55.943Z,8.53
2023-04-05T13:46:58.423Z,8.98
2023-04-05T13:50:00.979Z,8.84
2023-04-05T13:53:03.437Z,8.75
2023-04-05T13:56:06.504Z,8.56
2023-04-05T13:59:10.345Z,8.14
2023-04-05T14:02:12.931Z,8.44
2023-04-05T14:05:17.125Z,8.61
2023-04-05T14:08:19.992Z,7.98
2023-04-05T14:11:23.025Z,7.88
2023-04-05T14:14:27.049Z,7.08
2023-04-05T14:17:29.683Z,6.92
2023-04-05T14:20:32.196Z,7.25
2023-04-05T14:23:34.696Z,7.23
2023-04-05T14:26:37.722Z,7.08
2023-04-05T14:29:41.515Z,7.02
2023-04-05T14:32:45.176Z,7.23
2023-04-05T14:35:47.797Z,7.61
2023-04-05T14:38:50.322Z,8.15
2023-04-05T14:41:54.135Z,8.34
2023-04-05T14:44:58.157Z,7.84
2023-04-05T14:48:01.215Z,7.94
2023-04-05T14:51:03.971Z,7.28
2023-04-05T14:54:07.243Z,6.96
2023-04-05T14:57:09.692Z,6.57
2023-04-05T15:00:14.876Z,6.49
2023-04-05T15:03:19.506Z,7.05
2023-04-05T15:06:22.394Z,7.34
2023-04-05T15:09:24.905Z,7.01
2023-04-05T15:12:27.475Z,6.28
2023-04-05T15:15:32.763Z,6.33
2023-04-05T15:18:35.219Z,6.44
2023-04-05T15:21:39.028Z,6.25
2023-04-05T15:24:42.806Z,6.20
2023-04-05T15:27:45.395Z,6.25
2023-04-05T15:30:51.205Z,6.20
2023-04-05T15:33:53.695Z,6.22
2023-04-05T15:36:56.647Z,6.38
2023-04-05T15:40:00.619Z,6.24
2023-04-05T15:43:04.342Z,6.18
2023-04-05T15:46:08.122Z,6.23
2023-04-05T15:49:13.645Z,6.33
2023-04-05T15:52:17.641Z,6.39
2023-04-05T15:55:20.382Z,6.25
2023-04-05T15:58:22.849Z,5.97
2023-04-05T16:01:26.698Z,6.04
2023-04-05T16:04:30.482Z,6.03
2023-04-05T16:07:33.006Z,5.93
2023-04-05T16:10:35.528Z,5.71
2023-04-05T16:13:38.045Z,5.67
2023-04-05T16:16:53.299Z,5.77
2023-04-05T16:19:57.483Z,5.69
2023-04-05T16:22:59.994Z,5.63
2023-04-05T16:26:02.816Z,5.59
2023-04-05T16:29:05.480Z,5.68
2023-04-05T16:32:09.396Z,5.67
2023-04-05T16:35:11.934Z,5.56
2023-04-05T16:38:14.463Z,5.41
2023-04-05T16:41:16.936Z,5.37
2023-04-05T16:44:19.411Z,5.36
2023-04-05T16:47:23.343Z,5.26
2023-04-05T16:50:25.834Z,5.20
2023-04-05T16:53:28.291Z,5.11
2023-04-05T16:56:30.936Z,5.07
2023-04-05T16:59:33.481Z,5.09
2023-04-05T17:02:37.404Z,5.03
2023-04-05T17:05:39.898Z,4.98
2023-04-05T17:08:42.945Z,4.94
2023-04-05T17:11:45.416Z,4.91
2023-04-05T17:14:47.863Z,4.83
2023-04-05T17:17:51.840Z,4.76
2023-04-05T17:20:54.361Z,4.77
2023-04-05T17:23:56.810Z,4.76
2023-04-05T17:26:59.250Z,4.72
2023-04-05T17:30:01.983Z,4.69
2023-04-05T17:33:05.932Z,4.64
2023-04-05T17:36:08.781Z,4.55
2023-04-05T17:39:11.276Z,4.53
2023-04-05T17:42:13.754Z,4.50
2023-04-05T17:45:16.217Z,4.53
2023-04-05T17:48:20.146Z,4.48
2023-04-05T17:51:22.968Z,4.48
2023-04-05T17:54:25.498Z,4.49
2023-04-05T17:57:27.971Z,4.50
2023-04-05T18:00:30.730Z,4.47
2023-04-05T18:03:34.658Z,4.47
2023-04-05T18:06:37.175Z,4.44
2023-04-05T18:09:41.975Z,4.50
2023-04-05T18:12:44.498Z,4.48
2023-04-05T18:15:47.330Z,4.43
2023-04-05T18:18:51.559Z,4.36
2023-04-05T18:21:54.009Z,4.31
2023-04-05T18:24:56.448Z,4.28
2023-04-05T18:28:00.056Z,4.27
2023-04-05T18:31:03.800Z,4.24
2023-04-05T18:34:07.578Z,4.22
2023-04-05T18:37:10.045Z,4.20
2023-04-05T18:40:12.940Z,4.20
2023-04-05T18:43:15.458Z,4.18
2023-04-05T18:46:18.837Z,4.15
2023-04-05T18:49:22.812Z,4.11
2023-04-05T18:52:27.320Z,4.06
2023-04-05T18:55:29.763Z,4.04
2023-04-05T18:58:32.308Z,4.00
2023-04-05T19:01:34.830Z,4.02
2023-04-05T19:04:38.591Z,4.00
